Time;durP1;ratioP1;P1;durP2;ratioP2;P2;SDS_P1;SDS_P2;PMS_P1;PMS_P2;Temp;Humidity;BMP_temperature;BMP_pressure;BME280_temperature;BME280_humidity;BME280_pressure;Samples;Min_cycle;Max_cycle;Signal;HPM_P1;HPM_P2
2023/09/08 00:00:00;;;;;;;3.53;1.70;;;13.00;83.60;;;;;;5093378;28;20465;-80
2023/09/08 00:02:27;;;;;;;4.45;1.63;;;13.00;83.50;;;;;;5093383;28;20028;-79
2023/09/08 00:04:54;;;;;;;3.05;2.00;;;13.00;83.70;;;;;;5093378;28;20054;-80
2023/09/08 00:07:20;;;;;;;5.70;2.42;;;13.00;83.70;;;;;;5093083;28;20059;-79
2023/09/08 00:09:46;;;;;;;2.53;1.70;;;13.00;83.70;;;;;;5093152;28;20027;-79
2023/09/08 00:12:12;;;;;;;4.43;1.73;;;13.00;83.70;;;;;;5093242;28;20024;-80
2023/09/08 00:14:38;;;;;;;2.72;1.60;;;13.00;83.60;;;;;;5092893;28;20480;-79
2023/09/08 00:17:04;;;;;;;5.22;2.00;;;12.90;83.50;;;;;;5093135;28;20035;-79
2023/09/08 00:19:30;;;;;;;3.10;1.65;;;12.90;83.60;;;;;;5092833;28;20024;-80
2023/09/08 00:21:56;;;;;;;2.58;1.50;;;12.90;83.70;;;;;;5093195;28;20471;-80
2023/09/08 00:24:22;;;;;;;3.97;2.38;;;12.90;83.70;;;;;;5092894;28;20123;-79
2023/09/08 00:26:48;;;;;;;3.45;2.00;;;12.90;83.90;;;;;;5092790;28;20172;-80
2023/09/08 00:29:14;;;;;;;5.97;2.25;;;12.90;84.30;;;;;;5093057;28;20036;-79
2023/09/08 00:31:40;;;;;;;3.10;1.73;;;12.90;84.10;;;;;;5093078;28;20020;-79
2023/09/08 00:34:06;;;;;;;5.95;2.38;;;12.90;84.00;;;;;;5092063;28;20031;-80
2023/09/08 00:36:32;;;;;;;3.42;1.77;;;12.90;83.90;;;;;;5093218;28;20027;-79
2023/09/08 00:38:58;;;;;;;3.67;1.83;;;12.90;84.10;;;;;;5093024;28;20016;-80
2023/09/08 00:41:24;;;;;;;4.43;2.30;;;12.90;84.10;;;;;;5092805;28;20082;-78
2023/09/08 00:43:50;;;;;;;5.78;2.20;;;12.80;84.10;;;;;;5092962;28;20024;-78
2023/09/08 00:46:17;;;;;;;5.82;1.90;;;12.80;84.30;;;;;;5093878;28;20055;-80
2023/09/08 00:48:43;;;;;;;4.80;2.20;;;12.80;84.50;;;;;;5094068;28;20037;-80
2023/09/08 00:51:12;;;;;;;2.63;1.73;;;12.80;84.60;;;;;;5094902;28;20028;-79
2023/09/08 00:53:38;;;;;;;7.15;2.17;;;12.70;84.60;;;;;;5093805;28;20022;-79
2023/09/08 00:56:04;;;;;;;5.50;2.05;;;12.70;85.00;;;;;;5093554;28;20099;-79
2023/09/08 00:58:31;;;;;;;4.13;1.80;;;12.60;85.50;;;;;;5093248;28;20016;-80
2023/09/08 01:00:59;;;;;;;2.47;1.63;;;12.50;85.80;;;;;;5092847;28;20261;-80
2023/09/08 01:03:25;;;;;;;2.47;1.65;;;12.50;85.90;;;;;;5092501;28;20485;-80
2023/09/08 01:05:52;;;;;;;3.72;1.73;;;12.50;85.90;;;;;;5092711;28;20020;-79
2023/09/08 01:08:18;;;;;;;3.85;2.13;;;12.50;85.80;;;;;;5091565;28;20044;-80
2023/09/08 01:10:45;;;;;;;5.70;1.75;;;12.50;85.70;;;;;;5092302;28;20069;-80
2023/09/08 01:13:11;;;;;;;5.68;2.45;;;12.60;85.80;;;;;;5083022;28;20021;-81
2023/09/08 01:15:37;;;;;;;3.88;1.80;;;12.60;85.80;;;;;;5085835;28;20028;-80
2023/09/08 01:18:03;;;;;;;4.38;1.50;;;12.60;85.60;;;;;;5084989;28;20521;-80
2023/09/08 01:21:05;;;;;;;5.32;2.17;;;12.60;85.60;;;;;;5085524;28;20034;-81
2023/09/08 01:23:46;;;;;;;4.63;1.95;;;12.70;85.70;;;;;;5072439;28;20070;-80
2023/09/08 01:26:21;;;;;;;2.55;1.60;;;12.70;85.70;;;;;;5100298;28;20031;-79
2023/09/08 01:28:50;;;;;;;6.40;1.90;;;12.70;85.80;;;;;;5098442;28;20017;-78
2023/09/08 01:31:17;;;;;;;8.80;2.53;;;12.70;85.70;;;;;;5092396;28;20058;-80
2023/09/08 01:33:44;;;;;;;5.05;1.98;;;12.70;85.80;;;;;;5092578;28;20454;-79
2023/09/08 01:36:11;;;;;;;3.17;1.60;;;12.70;85.70;;;;;;5091921;28;20024;-81
2023/09/08 01:38:37;;;;;;;3.85;1.90;;;12.80;85.80;;;;;;5091979;28;20464;-79
2023/09/08 01:41:02;;;;;;;3.17;1.77;;;12.70;85.80;;;;;;5091890;28;20056;-80
2023/09/08 01:43:28;;;;;;;5.80;2.08;;;12.70;85.90;;;;;;5091914;28;20025;-80
2023/09/08 01:45:54;;;;;;;4.70;1.95;;;12.70;86.10;;;;;;5090548;28;20055;-79
2023/09/08 01:48:20;;;;;;;4.60;2.00;;;12.70;86.30;;;;;;5091548;28;20039;-79
2023/09/08 01:50:48;;;;;;;1.88;1.33;;;12.70;87.10;;;;;;5091758;28;20461;-79
2023/09/08 01:53:14;;;;;;;3.33;1.90;;;12.70;87.10;;;;;;5091607;28;20028;-78
2023/09/08 01:55:39;;;;;;;3.47;1.50;;;12.60;87.40;;;;;;5083062;28;20031;-79
2023/09/08 01:58:05;;;;;;;5.13;2.30;;;12.50;88.10;;;;;;5086428;28;20024;-79
2023/09/08 02:00:31;;;;;;;2.95;1.80;;;12.50;88.80;;;;;;5086190;28;20382;-78
2023/09/08 02:02:57;;;;;;;6.00;1.90;;;12.30;89.70;;;;;;5091879;28;20401;-78
2023/09/08 02:05:23;;;;;;;3.10;1.75;;;12.30;90.20;;;;;;5091527;28;20039;-78
2023/09/08 02:07:49;;;;;;;3.92;1.98;;;12.20;90.50;;;;;;5095076;28;20051;-77
2023/09/08 02:10:15;;;;;;;2.40;1.83;;;12.10;90.90;;;;;;5095648;28;20020;-78
2023/09/08 02:12:40;;;;;;;6.55;2.28;;;11.90;91.30;;;;;;5095548;28;20354;-78
2023/09/08 02:15:07;;;;;;;3.28;1.85;;;11.80;91.60;;;;;;5094242;28;20524;-79
2023/09/08 02:17:32;;;;;;;3.60;1.48;;;11.70;91.90;;;;;;5095523;28;20020;-79
2023/09/08 02:19:58;;;;;;;3.83;1.65;;;11.70;92.10;;;;;;5095539;28;20727;-78
2023/09/08 02:22:24;;;;;;;5.32;2.30;;;11.70;92.40;;;;;;5093921;28;20028;-78
2023/09/08 02:24:51;;;;;;;4.70;1.70;;;11.60;92.40;;;;;;5095251;28;20554;-78
2023/09/08 02:27:18;;;;;;;4.20;1.88;;;11.60;92.50;;;;;;5095265;28;20027;-80
2023/09/08 02:29:44;;;;;;;3.10;1.65;;;11.60;92.60;;;;;;5095167;28;20026;-78
2023/09/08 02:32:10;;;;;;;3.40;1.73;;;11.60;92.70;;;;;;5083607;28;20469;-80
2023/09/08 02:34:37;;;;;;;2.58;1.73;;;11.60;92.70;;;;;;5094096;28;20027;-78
2023/09/08 02:37:03;;;;;;;6.50;1.97;;;11.60;92.80;;;;;;5094892;28;20016;-79
2023/09/08 02:39:28;;;;;;;4.55;1.52;;;11.60;92.70;;;;;;5094843;28;20814;-81
2023/09/08 02:41:54;;;;;;;3.90;1.63;;;11.70;92.70;;;;;;5094991;28;20027;-79
2023/09/08 02:44:21;;;;;;;2.75;2.05;;;11.70;92.70;;;;;;5094915;28;20022;-81
2023/09/08 02:46:48;;;;;;;2.35;1.67;;;11.70;92.60;;;;;;5094736;28;20362;-79
2023/09/08 02:49:13;;;;;;;3.03;1.60;;;11.70;92.60;;;;;;5093329;28;20104;-78
2023/09/08 02:51:39;;;;;;;7.15;1.98;;;11.80;92.60;;;;;;5080233;28;20028;-80
2023/09/08 02:54:05;;;;;;;2.92;1.52;;;11.80;92.60;;;;;;5094983;28;20104;-79
2023/09/08 02:56:31;;;;;;;3.58;1.70;;;11.90;92.50;;;;;;5094597;28;20016;-80
2023/09/08 02:58:56;;;;;;;2.72;1.50;;;11.90;92.40;;;;;;5086818;28;20499;-80
2023/09/08 03:01:22;;;;;;;2.08;1.40;;;11.90;92.30;;;;;;5088542;28;20111;-80
2023/09/08 03:03:48;;;;;;;1.92;1.40;;;11.90;92.20;;;;;;5094974;28;20020;-80
2023/09/08 03:06:15;;;;;;;3.60;1.83;;;11.90;92.30;;;;;;5077822;28;20021;-79
2023/09/08 03:08:41;;;;;;;2.53;2.17;;;12.00;92.30;;;;;;5088379;28;20511;-80
2023/09/08 03:11:08;;;;;;;4.57;2.15;;;11.90;92.40;;;;;;5094843;28;20037;-79
2023/09/08 03:13:35;;;;;;;1.70;1.27;;;11.90;92.40;;;;;;5101126;28;20027;-80
2023/09/08 03:16:07;;;;;;;2.72;1.65;;;11.90;92.20;;;;;;5105395;28;20073;-79
2023/09/08 03:18:37;;;;;;;3.03;1.75;;;11.90;92.20;;;;;;5094470;28;20024;-80
2023/09/08 03:21:09;;;;;;;3.45;1.60;;;11.70;92.50;;;;;;5078475;28;20043;-79
2023/09/08 03:23:43;;;;;;;3.70;1.85;;;11.70;92.70;;;;;;5094383;28;20035;-79
2023/09/08 03:26:09;;;;;;;3.78;2.03;;;11.60;92.90;;;;;;5093446;28;20032;-78
2023/09/08 03:28:36;;;;;;;2.70;1.40;;;11.50;93.00;;;;;;5092904;28;20036;-79
2023/09/08 03:31:03;;;;;;;3.30;1.35;;;11.60;93.10;;;;;;5094225;28;20020;-79
2023/09/08 03:33:29;;;;;;;3.60;1.73;;;11.60;93.20;;;;;;5094360;28;20215;-80
2023/09/08 03:35:55;;;;;;;3.03;1.92;;;11.60;93.30;;;;;;5094551;28;20187;-79
2023/09/08 03:38:21;;;;;;;3.78;2.58;;;11.70;93.10;;;;;;5090930;28;20024;-79
2023/09/08 03:40:47;;;;;;;2.95;1.55;;;11.80;93.00;;;;;;5092392;28;20465;-78
2023/09/08 03:43:13;;;;;;;3.42;2.03;;;11.90;92.80;;;;;;5097979;28;20031;-78
2023/09/08 03:45:39;;;;;;;6.60;2.17;;;12.00;92.70;;;;;;5096364;28;20016;-79
2023/09/08 03:48:08;;;;;;;2.25;1.77;;;12.00;92.50;;;;;;5100272;28;20043;-81
2023/09/08 03:50:35;;;;;;;4.90;1.90;;;12.10;92.20;;;;;;5099611;28;20016;-77
2023/09/08 03:53:00;;;;;;;3.50;1.80;;;12.10;92.20;;;;;;5094019;28;20020;-81
2023/09/08 03:55:26;;;;;;;5.25;2.03;;;12.10;92.20;;;;;;5094300;28;20027;-81
2023/09/08 03:57:52;;;;;;;4.00;1.75;;;12.20;92.00;;;;;;5093984;28;20105;-80
2023/09/08 04:00:21;;;;;;;5.43;1.90;;;12.30;91.90;;;;;;5089568;28;20020;-80
2023/09/08 04:02:48;;;;;;;5.05;2.40;;;12.30;92.00;;;;;;5093564;28;20040;-80
2023/09/08 04:05:14;;;;;;;4.32;2.10;;;12.40;92.00;;;;;;5093246;28;20020;-79
2023/09/08 04:07:40;;;;;;;2.40;1.73;;;12.50;92.10;;;;;;5092612;28;20051;-79
2023/09/08 04:10:06;;;;;;;3.70;1.92;;;12.50;91.50;;;;;;5093114;28;20051;-80
2023/09/08 04:12:32;;;;;;;3.97;1.60;;;12.60;91.50;;;;;;5070478;28;20131;-79
2023/09/08 04:14:58;;;;;;;6.60;1.95;;;12.60;91.50;;;;;;5053829;28;20344;-79
2023/09/08 04:17:24;;;;;;;5.72;2.10;;;12.80;91.60;;;;;;5070438;28;20051;-81
2023/09/08 04:19:49;;;;;;;2.72;1.73;;;13.00;91.10;;;;;;5070586;28;20035;-79
2023/09/08 04:22:15;;;;;;;2.75;1.48;;;13.20;91.00;;;;;;5053660;28;20021;-78
2023/09/08 04:24:41;;;;;;;5.32;2.08;;;13.40;90.50;;;;;;5070193;28;20112;-79
2023/09/08 04:27:08;;;;;;;2.40;1.60;;;13.40;89.90;;;;;;5059067;28;20053;-79
2023/09/08 04:29:34;;;;;;;;;;;13.50;89.30;;;;;;5067768;28;20064;-79
2023/09/08 04:32:00;;;;;;;5.13;2.33;;;13.70;90.00;;;;;;5070337;28;19997;-80
2023/09/08 04:34:26;;;;;;;2.65;1.50;;;13.90;88.10;;;;;;5070670;28;20504;-81
2023/09/08 04:36:51;;;;;;;4.53;1.98;;;14.20;85.60;;;;;;5070727;28;20135;-79
2023/09/08 04:39:17;;;;;;;2.97;1.67;;;14.20;84.50;;;;;;5072089;28;20099;-79
2023/09/08 04:41:43;;;;;;;2.70;1.85;;;14.10;84.30;;;;;;5058505;28;20127;-80
2023/09/08 04:44:09;;;;;;;3.30;1.95;;;13.90;84.20;;;;;;5053691;28;20588;-80
2023/09/08 04:46:36;;;;;;;3.70;1.98;;;13.70;84.60;;;;;;5070215;28;20103;-80
2023/09/08 04:49:01;;;;;;;3.27;1.57;;;13.60;85.60;;;;;;5073205;28;20029;-81
2023/09/08 04:51:27;;;;;;;5.72;2.25;;;13.50;85.70;;;;;;5091365;28;20560;-80
2023/09/08 04:53:53;;;;;;;3.15;1.75;;;13.50;86.00;;;;;;5084824;28;20031;-81
2023/09/08 04:56:18;;;;;;;4.93;1.95;;;13.50;86.00;;;;;;5087385;28;20035;-81
2023/09/08 04:58:44;;;;;;;5.85;1.80;;;13.50;86.00;;;;;;5086730;28;20086;-81
2023/09/08 05:01:10;;;;;;;2.33;1.25;;;13.50;86.00;;;;;;5088150;28;20031;-81
2023/09/08 05:03:36;;;;;;;2.67;1.55;;;13.40;86.10;;;;;;5107338;28;20020;-81
2023/09/08 05:06:01;;;;;;;6.13;1.83;;;13.50;85.90;;;;;;5093132;28;20020;-81
2023/09/08 05:08:27;;;;;;;4.07;2.03;;;13.40;85.90;;;;;;5092834;28;20382;-82
2023/09/08 05:10:53;;;;;;;3.17;1.58;;;13.30;86.10;;;;;;5078618;28;20380;-83
2023/09/08 05:13:19;;;;;;;3.60;1.50;;;13.40;86.10;;;;;;5081347;28;20120;-83
2023/09/08 05:15:48;;;;;;;5.47;2.10;;;13.60;85.70;;;;;;5088731;28;20054;-82
2023/09/08 05:18:14;;;;;;;3.22;1.95;;;13.70;85.30;;;;;;5090979;28;20569;-81
2023/09/08 05:20:39;;;;;;;3.08;1.73;;;13.80;84.70;;;;;;5077585;28;20029;-80
2023/09/08 05:23:05;;;;;;;2.55;1.67;;;14.00;83.50;;;;;;5092022;28;20529;-82
2023/09/08 05:25:31;;;;;;;3.85;2.30;;;14.00;82.80;;;;;;5091506;28;20024;-83
2023/09/08 05:27:57;;;;;;;6.32;1.73;;;13.90;83.30;;;;;;5092033;28;20032;-80
2023/09/08 05:30:22;;;;;;;4.78;1.52;;;13.90;82.70;;;;;;5091701;28;20411;-81
2023/09/08 05:32:48;;;;;;;3.72;1.35;;;13.90;83.20;;;;;;5089593;28;20023;-81
2023/09/08 05:35:14;;;;;;;6.40;2.17;;;14.00;82.60;;;;;;5085717;28;20051;-82
2023/09/08 05:37:40;;;;;;;4.57;1.63;;;13.90;81.70;;;;;;5093509;28;20220;-81
2023/09/08 05:40:06;;;;;;;3.78;1.65;;;13.80;82.00;;;;;;5092440;28;20028;-82
2023/09/08 05:42:32;;;;;;;4.07;2.80;;;13.80;81.90;;;;;;5090399;28;20385;-80
2023/09/08 05:44:58;;;;;;;5.53;2.00;;;13.90;82.20;;;;;;5097084;28;20035;-81
2023/09/08 05:47:24;;;;;;;3.08;1.75;;;13.90;82.00;;;;;;5101736;28;20050;-82
2023/09/08 05:49:49;;;;;;;4.53;1.48;;;13.70;82.00;;;;;;5101672;28;20099;-80
2023/09/08 05:52:15;;;;;;;5.28;1.42;;;13.70;82.40;;;;;;5100458;28;20020;-82
2023/09/08 05:54:41;;;;;;;7.22;1.65;;;13.60;81.80;;;;;;5095940;28;20081;-82
2023/09/08 05:57:07;;;;;;;3.20;1.67;;;13.60;82.20;;;;;;5084160;28;20164;-81
2023/09/08 05:59:32;;;;;;;4.93;1.73;;;13.60;81.80;;;;;;5095239;28;20028;-83
2023/09/08 06:01:58;;;;;;;5.78;1.92;;;13.60;81.40;;;;;;5093544;28;20028;-83
2023/09/08 06:04:24;;;;;;;5.38;1.35;;;14.00;81.00;;;;;;5085251;28;20519;-82
2023/09/08 06:06:50;;;;;;;4.47;1.90;;;14.60;79.60;;;;;;5096301;28;20036;-83
2023/09/08 06:09:16;;;;;;;6.68;2.08;;;15.50;77.90;;;;;;5097031;28;20043;-84
2023/09/08 06:11:42;;;;;;;5.03;1.70;;;16.60;74.40;;;;;;5088533;28;20482;-83
2023/09/08 06:14:08;;;;;;;3.58;1.58;;;17.40;71.20;;;;;;5096141;28;20040;-83
2023/09/08 06:16:35;;;;;;;5.13;1.80;;;17.60;68.30;;;;;;5103370;28;20056;-82
2023/09/08 06:19:03;;;;;;;5.72;1.77;;;17.50;69.30;;;;;;5098526;28;20095;-80
2023/09/08 06:21:29;;;;;;;4.28;1.85;;;17.70;68.10;;;;;;5094533;28;20052;-85
2023/09/08 06:23:54;;;;;;;5.63;1.88;;;17.20;67.80;;;;;;5088255;28;20126;-82
2023/09/08 06:26:20;;;;;;;2.78;1.60;;;16.70;69.50;;;;;;5095876;28;20051;-83
2023/09/08 06:28:46;;;;;;;6.05;2.55;;;16.90;69.40;;;;;;5095834;28;20024;-85
2023/09/08 06:31:11;;;;;;;6.22;1.60;;;17.20;69.00;;;;;;5096416;28;20534;-84
2023/09/08 06:33:37;;;;;;;6.45;1.83;;;17.10;67.90;;;;;;5096214;28;20026;-85
2023/09/08 06:36:03;;;;;;;4.90;2.00;;;16.60;68.80;;;;;;5097550;28;20088;-84
2023/09/08 06:38:31;;;;;;;3.17;1.40;;;16.00;69.80;;;;;;5089750;28;20043;-83
2023/09/08 06:40:57;;;;;;;;;;;15.70;71.10;;;;;;5096308;28;20044;-86
2023/09/08 06:43:23;;;;;;;6.18;2.70;;;15.30;71.70;;;;;;5093544;28;19920;-84
2023/09/08 06:45:49;;;;;;;5.95;1.70;;;15.00;72.90;;;;;;5094724;28;20626;-84
2023/09/08 06:48:16;;;;;;;3.73;1.53;;;15.00;73.30;;;;;;5087069;28;20040;-86
2023/09/08 06:50:42;;;;;;;5.90;1.63;;;15.20;73.00;;;;;;5095113;28;20485;-83
2023/09/08 06:53:08;;;;;;;4.13;1.42;;;15.40;72.50;;;;;;5088570;28;20033;-85
2023/09/08 06:55:34;;;;;;;3.80;1.95;;;15.40;71.70;;;;;;5103642;28;20019;-84
2023/09/08 06:58:00;;;;;;;9.00;3.17;;;15.20;71.30;;;;;;5109976;28;20020;-84
2023/09/08 07:00:25;;;;;;;6.80;2.38;;;15.00;72.50;;;;;;5090752;28;20020;-83
2023/09/08 07:02:51;;;;;;;4.20;1.73;;;15.00;73.60;;;;;;5093352;28;20020;-83
2023/09/08 07:05:17;;;;;;;3.50;1.60;;;15.00;73.60;;;;;;5095230;28;20066;-85
2023/09/08 07:07:43;;;;;;;5.32;1.67;;;15.40;73.10;;;;;;5081238;28;20044;-85
2023/09/08 07:10:11;;;;;;;7.75;1.88;;;15.80;72.20;;;;;;5081669;28;20736;-85
2023/09/08 07:12:36;;;;;;;6.05;1.42;;;16.10;71.30;;;;;;5082935;28;20016;-84
2023/09/08 07:15:02;;;;;;;12.13;2.70;;;16.40;69.30;;;;;;5095406;28;20028;-83
2023/09/08 07:17:28;;;;;;;4.60;1.70;;;16.90;68.50;;;;;;5083504;28;20481;-84
2023/09/08 07:19:54;;;;;;;4.53;1.92;;;18.40;66.50;;;;;;5093248;28;20032;-85
2023/09/08 07:22:20;;;;;;;7.53;1.75;;;19.60;60.70;;;;;;5094771;28;20111;-84
2023/09/08 07:24:45;;;;;;;10.27;2.05;;;19.90;59.70;;;;;;5093970;28;20476;-86
2023/09/08 07:27:14;;;;;;;7.05;1.70;;;20.60;59.50;;;;;;5095031;28;20022;-82
2023/09/08 07:29:41;;;;;;;4.20;2.13;;;21.30;56.70;;;;;;5080179;28;20039;-86
2023/09/08 07:32:07;;;;;;;3.30;1.60;;;21.70;55.40;;;;;;5083229;28;20024;-86
2023/09/08 07:34:33;;;;;;;3.60;1.60;;;22.60;53.70;;;;;;5091272;28;20031;-84
2023/09/08 07:37:00;;;;;;;3.50;1.40;;;23.10;51.10;;;;;;5093473;28;20442;-85
2023/09/08 07:39:27;;;;;;;3.95;1.65;;;22.30;51.50;;;;;;5088034;28;20025;-85
2023/09/08 07:41:54;;;;;;;7.32;2.75;;;21.40;53.90;;;;;;5095570;28;20016;-88
2023/09/08 07:44:19;;;;;;;2.67;1.73;;;20.70;55.30;;;;;;5084073;28;20079;-84
2023/09/08 07:46:48;;;;;;;4.53;1.60;;;20.20;55.70;;;;;;5073827;28;20281;-84
2023/09/08 07:49:15;;;;;;;4.03;2.00;;;19.70;56.60;;;;;;5081138;28;20057;-83
2023/09/08 07:51:40;;;;;;;6.15;1.92;;;19.00;58.00;;;;;;5103943;28;20039;-84
2023/09/08 07:54:06;;;;;;;6.93;1.98;;;18.50;59.00;;;;;;5101880;28;20035;-84
2023/09/08 07:56:32;;;;;;;7.05;2.08;;;18.00;60.30;;;;;;5093475;28;20028;-82
2023/09/08 07:58:58;;;;;;;3.38;1.52;;;17.70;61.40;;;;;;5083834;28;20427;-83
2023/09/08 08:01:24;;;;;;;3.33;1.58;;;17.60;62.30;;;;;;5089182;28;20032;-84
2023/09/08 08:03:50;;;;;;;2.55;1.90;;;17.50;62.80;;;;;;5091480;28;20028;-85
2023/09/08 08:06:15;;;;;;;7.38;1.50;;;17.30;63.40;;;;;;5094031;28;20094;-86
2023/09/08 08:08:41;;;;;;;3.17;2.13;;;17.20;63.60;;;;;;5093371;28;20516;-85
2023/09/08 08:11:15;;;;;;;8.82;2.78;;;17.20;64.10;;;;;;5092625;28;20028;-86
2023/09/08 08:13:41;;;;;;;4.70;1.70;;;17.20;64.20;;;;;;5095781;28;20056;-87
2023/09/08 08:16:07;;;;;;;5.00;1.48;;;17.20;63.60;;;;;;5090497;28;20512;-85
2023/09/08 08:18:33;;;;;;;3.83;1.33;;;17.30;62.70;;;;;;5088931;28;20076;-83
2023/09/08 08:21:00;;;;;;;4.28;1.40;;;17.40;62.50;;;;;;5089590;28;20025;-85
2023/09/08 08:23:26;;;;;;;3.80;1.10;;;18.00;62.30;;;;;;5084241;28;20474;-86
2023/09/08 08:25:52;;;;;;;7.22;1.85;;;18.90;60.60;;;;;;5096195;28;20024;-83
2023/09/08 08:28:18;;;;;;;5.70;1.40;;;19.10;58.60;;;;;;5094403;28;20114;-81
2023/09/08 08:30:43;;;;;;;3.03;1.52;;;18.80;58.90;;;;;;5093704;28;20012;-81
2023/09/08 08:33:10;;;;;;;2.92;1.40;;;18.30;59.60;;;;;;5093311;28;20532;-82
2023/09/08 08:35:36;;;;;;;11.93;2.30;;;17.70;60.90;;;;;;5092685;28;20096;-82
2023/09/08 08:38:02;;;;;;;4.53;1.88;;;17.10;62.70;;;;;;5092097;28;20108;-83
2023/09/08 08:40:28;;;;;;;5.15;2.45;;;16.70;63.60;;;;;;5091556;28;20089;-83
2023/09/08 08:42:55;;;;;;;4.47;1.38;;;16.60;64.90;;;;;;5079069;28;20016;-86
2023/09/08 08:45:24;;;;;;;1.58;1.13;;;16.50;65.10;;;;;;5090449;28;20039;-82
2023/09/08 08:47:51;;;;;;;4.70;1.52;;;16.50;65.50;;;;;;5104465;28;20028;-81
2023/09/08 08:50:18;;;;;;;3.80;1.55;;;16.80;65.20;;;;;;5084275;28;20124;-83
2023/09/08 08:52:44;;;;;;;6.35;1.98;;;17.00;64.60;;;;;;5091537;28;20564;-81
2023/09/08 08:55:11;;;;;;;5.18;1.63;;;17.10;64.30;;;;;;5091699;28;20035;-82
2023/09/08 08:57:40;;;;;;;4.37;1.53;;;17.00;64.60;;;;;;5090294;28;20480;-82
2023/09/08 09:00:09;;;;;;;4.10;1.88;;;17.00;64.90;;;;;;5088818;28;20093;-84
2023/09/08 09:02:40;;;;;;;5.20;1.67;;;16.90;65.10;;;;;;5093661;28;20087;-87
2023/09/08 09:05:10;;;;;;;3.63;1.73;;;16.60;65.60;;;;;;5092254;28;20024;-83
2023/09/08 09:07:37;;;;;;;5.93;1.70;;;16.50;66.50;;;;;;5091699;28;20119;-81
2023/09/08 09:10:04;;;;;;;5.97;2.40;;;16.20;67.30;;;;;;5091183;28;20663;-81
2023/09/08 09:12:30;;;;;;;4.05;1.40;;;16.10;68.00;;;;;;5078948;28;20031;-83
2023/09/08 09:14:59;;;;;;;3.65;1.20;;;16.00;68.50;;;;;;5081920;28;20111;-84
2023/09/08 09:17:26;;;;;;;5.07;2.00;;;15.90;69.20;;;;;;5086342;28;20017;-85
2023/09/08 09:20:13;;;;;;;4.93;1.58;;;15.90;69.90;;;;;;5079962;28;20019;-81
2023/09/08 09:22:39;;;;;;;7.88;3.47;;;16.50;69.20;;;;;;5080214;28;20023;-81
2023/09/08 09:25:07;;;;;;;4.75;1.95;;;16.90;68.20;;;;;;5095688;28;20044;-84
2023/09/08 09:27:37;;;;;;;5.90;2.40;;;17.10;67.80;;;;;;5103835;28;20032;-85
2023/09/08 09:30:04;;;;;;;4.35;1.50;;;17.30;67.60;;;;;;5091025;28;20815;-84
2023/09/08 09:32:31;;;;;;;5.78;1.52;;;17.30;66.90;;;;;;5091213;28;20045;-84
2023/09/08 09:35:00;;;;;;;4.93;2.47;;;17.00;67.50;;;;;;5087289;28;20020;-85
2023/09/08 09:37:26;;;;;;;6.45;1.70;;;16.70;68.60;;;;;;5092134;28;20016;-85
2023/09/08 09:39:54;;;;;;;7.20;2.30;;;16.50;70.00;;;;;;5091678;28;20156;-83
2023/09/08 09:42:21;;;;;;;9.23;2.08;;;16.40;69.90;;;;;;5092468;28;20039;-84
2023/09/08 09:44:48;;;;;;;4.78;2.03;;;16.30;70.00;;;;;;5082858;28;20027;-84
2023/09/08 09:47:14;;;;;;;3.00;1.83;;;16.30;70.20;;;;;;5094822;28;20023;-86
2023/09/08 09:49:44;;;;;;;7.05;1.92;;;16.00;70.90;;;;;;5084905;28;20039;-81
2023/09/08 09:52:14;;;;;;;5.35;2.75;;;15.90;71.60;;;;;;5090993;28;20081;-80
2023/09/08 09:54:44;;;;;;;2.70;1.60;;;15.90;72.20;;;;;;5091175;28;20388;-83
2023/09/08 09:57:13;;;;;;;6.22;1.77;;;15.90;72.00;;;;;;5091587;28;20433;-80
2023/09/08 09:59:41;;;;;;;5.10;2.03;;;15.80;72.10;;;;;;5076545;28;20031;-79
2023/09/08 10:02:15;;;;;;;3.85;1.33;;;15.70;72.60;;;;;;5089858;28;20030;-83
2023/09/08 10:04:41;;;;;;;3.70;1.60;;;15.60;72.60;;;;;;5083294;28;20040;-83
2023/09/08 10:07:07;;;;;;;6.30;2.00;;;15.50;73.20;;;;;;5090802;28;20075;-81
2023/09/08 10:09:35;;;;;;;2.92;1.20;;;15.40;74.30;;;;;;5085690;28;20032;-84
2023/09/08 10:12:04;;;;;;;4.47;1.50;;;15.30;74.70;;;;;;5091692;28;20031;-82
2023/09/08 10:14:34;;;;;;;2.95;1.30;;;15.20;75.50;;;;;;5092480;28;20017;-84
2023/09/08 10:17:01;;;;;;;3.08;1.73;;;15.10;75.90;;;;;;5090728;28;20023;-83
2023/09/08 10:19:28;;;;;;;4.82;1.73;;;14.90;78.80;;;;;;5077581;28;20381;-82
2023/09/08 10:22:00;;;;;;;3.05;1.98;;;14.50;81.50;;;;;;5091968;28;20034;-85
2023/09/08 10:24:27;;;;;;;5.55;1.90;;;13.90;84.60;;;;;;5092060;28;20016;-82
2023/09/08 10:27:12;;;;;;;;;;;13.40;86.80;;;;;;5082784;28;20408;-80
2023/09/08 10:29:39;;;;;;;4.68;2.70;;;13.10;89.40;;;;;;5090645;28;19916;-86
2023/09/08 10:32:07;;;;;;;4.10;2.47;;;12.80;91.40;;;;;;5086623;28;20043;-86
2023/09/08 10:34:36;;;;;;;3.55;2.00;;;12.70;92.30;;;;;;5087960;28;20075;-84
2023/09/08 10:37:04;;;;;;;6.47;2.58;;;12.70;93.00;;;;;;5092982;28;20473;-81
2023/09/08 10:39:41;;;;;;;4.10;2.17;;;12.60;93.50;;;;;;5099156;28;20094;-86
2023/09/08 10:42:19;;;;;;;14.33;3.33;;;12.50;94.10;;;;;;5087426;28;20032;-85
2023/09/08 10:45:03;;;;;;;5.78;2.50;;;12.50;94.40;;;;;;5094936;28;20269;-85
2023/09/08 10:47:53;;;;;;;4.68;2.95;;;12.50;94.80;;;;;;5086824;28;20481;-84
2023/09/08 10:50:26;;;;;;;4.90;2.97;;;12.60;95.50;;;;;;5081346;28;20044;-86
2023/09/08 10:53:15;;;;;;;6.80;2.83;;;13.00;95.80;;;;;;5087626;28;20465;-81
2023/09/08 10:55:47;;;;;;;6.70;3.33;;;13.40;95.30;;;;;;5083189;28;20028;-83
2023/09/08 10:58:21;;;;;;;4.32;2.78;;;13.70;94.60;;;;;;5082726;28;20031;-81
2023/09/08 11:00:56;;;;;;;5.75;2.92;;;14.00;94.00;;;;;;5076227;28;20477;-84
2023/09/08 11:03:42;;;;;;;4.65;2.38;;;14.20;93.10;;;;;;5090428;28;20024;-82
2023/09/08 11:06:12;;;;;;;4.38;2.10;;;14.50;92.40;;;;;;5097267;28;20029;-84
2023/09/08 11:08:44;;;;;;;5.07;2.25;;;14.60;91.20;;;;;;5076775;28;20046;-86
2023/09/08 11:11:14;;;;;;;8.00;4.55;;;14.90;91.30;;;;;;5088058;28;20173;-86
2023/09/08 11:13:40;;;;;;;6.05;3.90;;;15.30;91.60;;;;;;5096722;28;20081;-85
2023/09/08 11:16:06;;;;;;;5.57;3.15;;;15.40;91.10;;;;;;5092486;28;20023;-82
2023/09/08 11:18:34;;;;;;;6.38;3.28;;;15.20;90.20;;;;;;5087453;28;20051;-85
2023/09/08 11:21:04;;;;;;;9.00;3.33;;;14.90;89.90;;;;;;5091187;28;20027;-83
2023/09/08 11:23:31;;;;;;;11.57;3.75;;;14.60;90.40;;;;;;5097005;28;20048;-83
2023/09/08 11:25:56;;;;;;;5.10;2.17;;;14.20;91.20;;;;;;5111385;28;20004;-88
2023/09/08 11:28:23;;;;;;;3.25;1.50;;;13.30;92.20;;;;;;5114855;28;20039;-87
2023/09/08 11:30:50;;;;;;;5.35;2.35;;;12.60;93.90;;;;;;5096269;28;20099;-87
2023/09/08 11:33:24;;;;;;;5.82;2.55;;;12.20;95.10;;;;;;5100266;28;20130;-85
2023/09/08 11:35:52;;;;;;;4.38;1.98;;;12.20;96.00;;;;;;5086485;28;20500;-86
2023/09/08 11:38:18;;;;;;;7.68;2.83;;;12.30;96.30;;;;;;5094674;28;20041;-88
2023/09/08 11:40:44;;;;;;;5.55;2.55;;;12.40;96.60;;;;;;5093593;28;20031;-88
2023/09/08 11:43:09;;;;;;;6.93;2.60;;;12.40;96.60;;;;;;5091997;28;20016;-90
2023/09/08 11:45:39;;;;;;;5.22;2.78;;;12.50;96.70;;;;;;5087047;28;20027;-87
2023/09/08 11:48:05;;;;;;;7.47;2.83;;;12.60;97.00;;;;;;5100964;28;20036;-88
2023/09/08 11:50:33;;;;;;;6.50;2.97;;;12.70;96.70;;;;;;5092508;28;20051;-87
2023/09/08 11:53:00;;;;;;;8.02;2.97;;;12.80;96.50;;;;;;5094000;28;20037;-91
2023/09/08 11:55:26;;;;;;;6.23;3.70;;;12.90;96.40;;;;;;5082727;28;20463;-89
2023/09/08 11:58:02;;;;;;;6.90;2.88;;;13.00;96.20;;;;;;5096733;28;20272;-91
2023/09/08 12:00:29;;;;;;;9.68;5.20;;;13.10;96.10;;;;;;5083059;28;20078;-89
2023/09/08 12:02:55;;;;;;;5.83;3.17;;;13.20;95.70;;;;;;5083340;28;20028;-88
2023/09/08 12:05:23;;;;;;;7.80;2.22;;;13.30;95.70;;;;;;5083927;28;20803;-87
2023/09/08 12:07:49;;;;;;;;;;;13.30;95.00;;;;;;5086195;28;20450;-86
2023/09/08 12:10:15;;;;;;;5.78;2.25;;;13.40;95.30;;;;;;5087583;28;19908;-86
2023/09/08 12:12:53;;;;;;;6.15;3.50;;;13.40;95.00;;;;;;5087637;28;20020;-83
2023/09/08 12:15:36;;;;;;;4.63;2.08;;;13.50;94.70;;;;;;5088359;28;20066;-86
2023/09/08 12:18:04;;;;;;;4.85;2.22;;;13.50;93.70;;;;;;5085957;28;20083;-87
2023/09/08 12:20:30;;;;;;;5.25;2.60;;;13.40;93.60;;;;;;5096648;28;20020;-91
2023/09/08 12:23:02;;;;;;;8.00;2.95;;;13.30;93.80;;;;;;5078866;28;20496;-86
2023/09/08 12:25:31;;;;;;;4.10;1.85;;;13.40;93.80;;;;;;5089856;28;20354;-86
2023/09/08 12:27:58;;;;;;;6.78;2.53;;;13.50;92.90;;;;;;5089408;28;20020;-85
2023/09/08 12:30:29;;;;;;;3.83;2.13;;;13.50;92.20;;;;;;5091854;28;20032;-84
2023/09/08 12:32:58;;;;;;;3.03;1.70;;;13.60;92.50;;;;;;5085442;28;20055;-84
2023/09/08 12:35:25;;;;;;;8.73;2.40;;;13.80;91.00;;;;;;5093067;28;20492;-84
2023/09/08 12:38:01;;;;;;;5.13;2.25;;;13.80;91.20;;;;;;5080318;28;20358;-84
2023/09/08 12:40:29;;;;;;;7.03;3.60;;;13.90;91.30;;;;;;5093840;28;20027;-84
2023/09/08 12:42:55;;;;;;;6.57;2.85;;;13.90;91.10;;;;;;5091722;28;20012;-86
2023/09/08 12:45:24;;;;;;;7.00;2.55;;;13.90;90.90;;;;;;5084635;28;20024;-92
2023/09/08 12:47:50;;;;;;;3.42;2.42;;;13.90;90.10;;;;;;5099587;28;20035;-91